Time;durP1;ratioP1;P1;durP2;ratioP2;P2;SDS_P1;SDS_P2;PMS_P1;PMS_P2;Temp;Humidity;BMP_temperature;BMP_pressure;BME280_temperature;BME280_humidity;BME280_pressure;Samples;Min_cycle;Max_cycle;Signal;HPM_P1;HPM_P2
2022/12/04 00:00:15;;;;;;;31.23;8.90;;;;;;;1.44;100.00;95885.56;5056899;28;20224;-72
2022/12/04 00:02:42;;;;;;;35.13;9.13;;;;;;;1.52;100.00;95877.94;5057116;28;20672;-72
2022/12/04 00:05:10;;;;;;;32.30;10.33;;;;;;;1.50;100.00;95871.22;5056251;28;20228;-72
2022/12/04 00:07:37;;;;;;;31.07;10.10;;;;;;;1.36;100.00;95885.41;5056187;28;20210;-73
2022/12/04 00:10:04;;;;;;;33.83;9.33;;;;;;;1.42;100.00;95874.47;5057378;28;20209;-73
2022/12/04 00:12:30;;;;;;;31.73;10.17;;;;;;;1.40;100.00;95870.38;5056990;28;20204;-73
2022/12/04 00:14:57;;;;;;;30.33;8.80;;;;;;;1.55;100.00;95862.09;5056296;28;20220;-73
2022/12/04 00:17:23;;;;;;;30.83;10.07;;;;;;;1.47;100.00;95856.75;5057134;28;20214;-72
2022/12/04 00:19:50;;;;;;;31.30;9.97;;;;;;;1.50;100.00;95864.28;5055651;28;20224;-72
2022/12/04 00:22:19;;;;;;;32.97;9.50;;;;;;;1.65;100.00;95868.13;5056422;28;20721;-73
2022/12/04 00:24:46;;;;;;;29.77;8.87;;;;;;;1.51;100.00;95872.88;5055989;28;20204;-73
2022/12/04 00:27:12;;;;;;;28.80;8.50;;;;;;;1.46;100.00;95873.25;5056539;28;20256;-72
2022/12/04 00:29:39;;;;;;;39.20;9.67;;;;;;;1.59;100.00;95871.28;5056759;28;20200;-72
2022/12/04 00:32:05;;;;;;;24.83;7.73;;;;;;;1.45;100.00;95869.03;5057152;28;20200;-73
2022/12/04 00:34:32;;;;;;;26.40;7.93;;;;;;;1.38;100.00;95880.06;5055375;28;20206;-72
2022/12/04 00:36:58;;;;;;;29.03;8.53;;;;;;;1.37;100.00;95868.03;5055988;28;20233;-72
2022/12/04 00:39:26;;;;;;;25.20;9.23;;;;;;;1.42;100.00;95876.25;5056320;28;20208;-73
2022/12/04 00:41:53;;;;;;;33.13;8.80;;;;;;;1.37;100.00;95879.22;5057131;28;20673;-72
2022/12/04 00:44:19;;;;;;;35.23;8.90;;;;;;;1.39;100.00;95884.31;5055438;28;20201;-72
2022/12/04 00:46:46;;;;;;;32.07;8.40;;;;;;;1.45;100.00;95879.44;5056242;28;20235;-72
2022/12/04 00:49:12;;;;;;;29.73;8.80;;;;;;;1.61;100.00;95879.75;5057354;28;20228;-72
2022/12/04 00:51:39;;;;;;;32.20;9.10;;;;;;;1.69;100.00;95877.31;5056522;28;20205;-72
2022/12/04 00:54:05;;;;;;;33.73;10.00;;;;;;;1.71;100.00;95883.19;5055772;28;20218;-73
2022/12/04 00:56:33;;;;;;;27.93;8.07;;;;;;;1.73;100.00;95881.28;5056508;28;20220;-72
2022/12/04 00:59:01;;;;;;;30.73;8.63;;;;;;;1.68;100.00;95883.47;5056110;28;20666;-72
2022/12/04 01:01:28;;;;;;;31.27;9.00;;;;;;;1.78;100.00;95889.50;5055797;28;20284;-73
2022/12/04 01:03:56;;;;;;;39.87;10.10;;;;;;;1.82;100.00;95888.28;5055374;28;20210;-72
2022/12/04 01:06:25;;;;;;;37.37;10.13;;;;;;;1.68;100.00;95880.88;5056428;28;20226;-73
2022/12/04 01:08:54;;;;;;;34.07;8.47;;;;;;;1.71;100.00;95884.97;5056181;28;20736;-72
2022/12/04 01:11:22;;;;;;;26.27;9.03;;;;;;;1.71;100.00;95879.78;5056779;28;20200;-73
2022/12/04 01:13:51;;;;;;;30.00;8.17;;;;;;;1.75;100.00;95886.34;5055845;28;20205;-72
2022/12/04 01:16:19;;;;;;;37.40;9.97;;;;;;;1.60;100.00;95888.47;5055842;28;20222;-72
2022/12/04 01:18:46;;;;;;;34.30;9.97;;;;;;;1.41;100.00;95891.03;5056645;28;21075;-73
2022/12/04 01:21:13;;;;;;;33.70;8.53;;;;;;;1.44;100.00;95885.56;5055730;28;20226;-73
2022/12/04 01:23:40;;;;;;;29.17;9.47;;;;;;;1.38;100.00;95888.66;5055868;28;20197;-72
2022/12/04 01:26:07;;;;;;;27.73;8.97;;;;;;;1.34;100.00;95894.28;5057419;28;20469;-72
2022/12/04 01:28:34;;;;;;;27.07;8.53;;;;;;;1.37;100.00;95891.41;5056454;28;20288;-72
2022/12/04 01:31:04;;;;;;;26.80;8.60;;;;;;;1.46;100.00;95891.44;5057123;28;20212;-73
2022/12/04 01:33:33;;;;;;;24.70;7.03;;;;;;;1.24;100.00;95876.03;5059620;28;20204;-73
2022/12/04 01:36:02;;;;;;;23.53;7.30;;;;;;;1.27;100.00;95875.81;5059558;28;20225;-72
2022/12/04 01:38:29;;;;;;;24.23;7.70;;;;;;;1.34;100.00;95889.88;5059348;28;20203;-72
2022/12/04 01:40:56;;;;;;;25.03;8.60;;;;;;;1.10;100.00;95872.16;5059900;28;20597;-72
2022/12/04 01:43:24;;;;;;;31.17;10.00;;;;;;;1.18;100.00;95869.75;5060433;28;20209;-72
2022/12/04 01:45:51;;;;;;;26.67;7.93;;;;;;;1.22;100.00;95877.13;5058695;28;20218;-72
2022/12/04 01:48:24;;;;;;;29.13;7.63;;;;;;;1.32;100.00;95878.00;5059319;28;20206;-72
2022/12/04 01:50:55;;;;;;;36.27;8.43;;;;;;;1.48;100.00;95876.56;5059622;28;20205;-73
2022/12/04 01:53:22;;;;;;;31.30;9.70;;;;;;;1.45;100.00;95876.84;5060200;28;20207;-72
2022/12/04 01:55:49;;;;;;;41.40;9.37;;;;;;;1.56;100.00;95874.13;5058461;28;20231;-73
2022/12/04 01:58:21;;;;;;;31.03;8.97;;;;;;;1.70;100.00;95875.53;5059023;28;20215;-72
2022/12/04 02:00:52;;;;;;;27.77;8.17;;;;;;;1.69;100.00;95881.69;5059403;28;20232;-72
2022/12/04 02:03:20;;;;;;;33.60;8.37;;;;;;;1.60;100.00;95867.69;5059020;28;20216;-72
2022/12/04 02:05:47;;;;;;;24.70;7.20;;;;;;;1.43;100.00;95872.72;5058522;28;20222;-72
2022/12/04 02:08:13;;;;;;;30.50;10.57;;;;;;;1.55;100.00;95869.88;5059378;28;20216;-72
2022/12/04 02:10:49;;;;;;;33.20;10.93;;;;;;;1.61;100.00;95865.94;5059431;28;20209;-72
2022/12/04 02:13:25;;;;;;;31.23;8.50;;;;;;;1.62;100.00;95860.63;5059055;28;20219;-72
2022/12/04 02:15:58;;;;;;;27.87;9.07;;;;;;;1.57;100.00;95856.78;5059041;28;20604;-72
2022/12/04 02:18:32;;;;;;;34.83;10.20;;;;;;;1.47;100.00;95855.94;5059162;28;20204;-72
2022/12/04 02:21:08;;;;;;;31.73;9.33;;;;;;;1.60;100.00;95857.31;5059152;28;20220;-72
2022/12/04 02:23:50;;;;;;;32.10;10.13;;;;;;;1.74;100.00;95853.53;5058330;28;20200;-72
2022/12/04 02:26:33;;;;;;;26.13;8.17;;;;;;;1.65;100.00;95847.34;5058297;28;20311;-72
2022/12/04 02:29:07;;;;;;;32.33;9.00;;;;;;;1.58;100.00;95838.47;5059263;28;20208;-72
2022/12/04 02:31:40;;;;;;;28.20;8.67;;;;;;;1.59;100.00;95839.28;5058570;28;20593;-72
2022/12/04 02:34:13;;;;;;;29.00;8.47;;;;;;;1.43;100.00;95834.59;5058492;28;20207;-72
2022/12/04 02:36:47;;;;;;;28.20;9.10;;;;;;;1.50;100.00;95825.34;5058965;28;20273;-72
2022/12/04 02:39:20;;;;;;;25.53;7.73;;;;;;;1.56;100.00;95829.97;5058941;28;20202;-72
2022/12/04 02:41:51;;;;;;;27.20;8.97;;;;;;;1.51;100.00;95829.56;5058021;28;21326;-72
2022/12/04 02:44:22;;;;;;;15.97;5.23;;;;;;;1.52;100.00;95825.22;5057689;28;20220;-72
2022/12/04 02:46:53;;;;;;;27.53;7.93;;;;;;;1.54;100.00;95824.13;5058303;28;20220;-72
2022/12/04 02:49:26;;;;;;;20.37;6.50;;;;;;;1.30;100.00;95818.44;5058708;28;20581;-72
2022/12/04 02:51:55;;;;;;;32.67;8.40;;;;;;;1.33;100.00;95819.94;5058497;28;20204;-72
2022/12/04 02:54:30;;;;;;;19.87;7.27;;;;;;;1.41;100.00;95812.31;5057467;28;20223;-72
2022/12/04 02:56:58;;;;;;;27.93;7.97;;;;;;;1.55;100.00;95812.75;5058403;28;20253;-72
2022/12/04 02:59:31;;;;;;;25.47;7.43;;;;;;;1.61;100.00;95812.22;5058287;28;20209;-72
2022/12/04 03:02:06;;;;;;;21.87;7.00;;;;;;;1.43;100.00;95803.44;5058378;28;20230;-71
2022/12/04 03:04:33;;;;;;;26.50;7.37;;;;;;;1.40;100.00;95803.72;5057531;28;20196;-72
2022/12/04 03:07:04;;;;;;;24.00;7.57;;;;;;;1.45;100.00;95796.38;5057359;28;20224;-72
2022/12/04 03:09:36;;;;;;;26.30;7.33;;;;;;;1.63;100.00;95799.94;5056619;28;20207;-71
2022/12/04 03:12:08;;;;;;;18.27;5.97;;;;;;;1.47;100.00;95794.44;5057850;28;20197;-71
2022/12/04 03:14:40;;;;;;;27.43;7.63;;;;;;;1.61;100.00;95790.66;5057602;28;20196;-70
2022/12/04 03:17:11;;;;;;;23.97;7.67;;;;;;;1.44;100.00;95786.09;5057393;28;20209;-71
2022/12/04 03:19:44;;;;;;;23.03;8.40;;;;;;;1.49;100.00;95791.69;5056769;28;20197;-70
2022/12/04 03:22:15;;;;;;;24.40;8.37;;;;;;;1.63;100.00;95786.13;5057455;28;20221;-70
2022/12/04 03:24:46;;;;;;;27.63;8.33;;;;;;;1.71;100.00;95787.13;5056227;28;20203;-71
2022/12/04 03:27:20;;;;;;;26.97;8.43;;;;;;;1.77;100.00;95794.38;5056847;28;20203;-71
2022/12/04 03:29:54;;;;;;;32.90;8.20;;;;;;;1.58;100.00;95789.16;5058037;28;21229;-71
2022/12/04 03:32:29;;;;;;;28.97;8.73;;;;;;;1.70;100.00;95800.22;5057419;28;20197;-71
2022/12/04 03:34:59;;;;;;;22.13;7.00;;;;;;;1.73;100.00;95799.97;5057021;28;20200;-71
2022/12/04 03:37:33;;;;;;;33.43;8.73;;;;;;;1.77;100.00;95799.56;5056496;28;21143;-71
2022/12/04 03:40:06;;;;;;;26.53;7.97;;;;;;;1.69;100.00;95809.78;5055859;28;20236;-71
2022/12/04 03:42:39;;;;;;;28.50;7.93;;;;;;;1.75;100.00;95811.03;5055811;28;20218;-71
2022/12/04 03:45:12;;;;;;;27.57;7.37;;;;;;;1.62;100.00;95807.88;5054549;28;20592;-71
2022/12/04 03:47:45;;;;;;;26.83;8.83;;;;;;;1.66;100.00;95817.03;5055750;28;20197;-71
2022/12/04 03:50:34;;;;;;;25.00;7.93;;;;;;;1.67;100.00;95827.28;5055716;28;20213;-71
2022/12/04 03:53:07;;;;;;;24.50;8.17;;;;;;;1.84;100.00;95829.22;5057208;28;20209;-71
2022/12/04 03:55:39;;;;;;;28.07;8.27;;;;;;;1.68;100.00;95826.34;5056348;28;20230;-71
2022/12/04 03:58:11;;;;;;;26.17;8.23;;;;;;;1.86;100.00;95833.34;5057325;28;20238;-71
2022/12/04 04:00:42;;;;;;;24.30;8.17;;;;;;;1.84;100.00;95837.03;5056924;28;20582;-71
2022/12/04 04:03:13;;;;;;;28.47;7.93;;;;;;;1.80;100.00;95830.44;5057131;28;20209;-71
2022/12/04 04:05:44;;;;;;;23.40;6.30;;;;;;;1.86;100.00;95833.34;5056156;28;20704;-71
2022/12/04 04:08:26;;;;;;;29.23;8.33;;;;;;;1.90;100.00;95839.91;5057205;28;20699;-71
2022/12/04 04:10:54;;;;;;;28.20;8.53;;;;;;;1.75;100.00;95824.84;5056437;28;20207;-71
2022/12/04 04:24:38;;;;;;;28.07;9.03;;;;;;;2.08;100.00;95821.88;5057592;28;20677;-71
2022/12/04 04:27:05;;;;;;;22.90;7.57;;;;;;;1.93;100.00;95818.84;5057112;28;20310;-71
2022/12/04 04:29:32;;;;;;;27.53;7.87;;;;;;;2.04;100.00;95810.13;5056537;28;20229;-71
2022/12/04 04:32:07;;;;;;;24.37;8.20;;;;;;;2.13;100.00;95801.50;5056705;28;20689;-71
2022/12/04 04:34:46;;;;;;;28.90;9.90;;;;;;;2.10;100.00;95802.59;5056328;28;20197;-71
2022/12/04 04:37:23;;;;;;;34.10;8.23;;;;;;;2.09;100.00;95805.34;5056816;28;20209;-71
2022/12/04 04:39:57;;;;;;;21.80;7.17;;;;;;;1.91;100.00;95817.34;5056921;28;20578;-71
2022/12/04 04:42:28;;;;;;;26.50;7.73;;;;;;;2.07;100.00;95822.81;5057026;28;20230;-71
2022/12/04 04:45:01;;;;;;;20.70;8.17;;;;;;;2.02;100.00;95822.41;5055707;28;20211;-71
2022/12/04 04:47:36;;;;;;;27.07;8.23;;;;;;;2.00;100.00;95819.16;5056912;28;20208;-71
2022/12/04 04:50:07;;;;;;;27.93;8.47;;;;;;;2.04;100.00;95817.91;5056832;28;20201;-71
2022/12/04 04:52:35;;;;;;;27.20;8.20;;;;;;;2.07;100.00;95815.03;5056128;28;20206;-71
2022/12/04 04:55:03;;;;;;;33.73;8.53;;;;;;;1.98;100.00;95815.84;5055855;28;23070;-71
2022/12/04 04:57:32;;;;;;;27.50;7.77;;;;;;;1.96;100.00;95817.75;5056812;28;20374;-71
2022/12/04 04:59:59;;;;;;;22.80;7.30;;;;;;;2.04;100.00;95820.50;5056297;28;20213;-71
2022/12/04 05:02:26;;;;;;;25.93;8.47;;;;;;;2.10;100.00;95820.78;5056112;28;20239;-71
2022/12/04 05:04:55;;;;;;;28.47;7.73;;;;;;;2.27;100.00;95817.50;5056694;28;20207;-71
2022/12/04 05:07:21;;;;;;;21.63;7.70;;;;;;;2.14;100.00;95805.72;5060107;28;20264;-71
2022/12/04 05:09:48;;;;;;;27.80;7.87;;;;;;;2.17;100.00;95810.66;5059979;28;20214;-71
2022/12/04 05:12:15;;;;;;;30.97;9.57;;;;;;;2.20;100.00;95810.38;5059947;28;20687;-71
2022/12/04 05:14:41;;;;;;;30.13;8.67;;;;;;;2.23;100.00;95816.13;5059693;28;20204;-71
2022/12/04 05:17:08;;;;;;;22.10;8.30;;;;;;;2.21;100.00;95822.41;5059529;28;20226;-71
2022/12/04 05:22:16;;;;;;;27.70;8.70;;;;;;;2.03;100.00;95829.25;5057850;28;20238;-71
2022/12/04 05:24:43;;;;;;;32.77;8.87;;;;;;;1.95;100.00;95829.94;5059538;28;20214;-71
2022/12/04 05:27:09;;;;;;;25.30;8.07;;;;;;;1.90;100.00;95818.31;5058989;28;20202;-71
2022/12/04 05:29:36;;;;;;;22.07;7.57;;;;;;;2.04;100.00;95820.50;5060361;28;20204;-71
2022/12/04 05:32:03;;;;;;;32.70;9.43;;;;;;;2.12;100.00;95813.66;5060256;28;20208;-70
2022/12/04 05:34:30;;;;;;;24.50;7.87;;;;;;;2.12;100.00;95800.66;5058932;28;20196;-71
2022/12/04 05:36:57;;;;;;;31.80;8.67;;;;;;;2.08;100.00;95807.09;5059754;28;20224;-71
2022/12/04 05:39:24;;;;;;;25.77;8.23;;;;;;;2.14;100.00;95796.16;5060793;28;20692;-71
2022/12/04 05:41:51;;;;;;;28.50;7.77;;;;;;;1.95;100.00;95790.16;5059770;28;20233;-71
2022/12/04 05:44:18;;;;;;;27.57;7.43;;;;;;;2.10;100.00;95799.16;5058557;28;20591;-71
2022/12/04 05:46:44;;;;;;;23.60;7.47;;;;;;;2.23;100.00;95804.91;5060014;28;20231;-71
2022/12/04 05:49:11;;;;;;;26.60;7.37;;;;;;;2.22;100.00;95803.28;5059612;28;20214;-71
2022/12/04 05:51:37;;;;;;;25.27;7.67;;;;;;;2.19;100.00;95795.72;5059724;28;20618;-71
2022/12/04 05:54:04;;;;;;;26.70;7.90;;;;;;;2.19;100.00;95790.53;5059241;28;20570;-71
2022/12/04 05:56:32;;;;;;;21.33;7.13;;;;;;;2.26;100.00;95789.03;5059416;28;20223;-71
2022/12/04 05:58:58;;;;;;;26.57;8.27;;;;;;;2.26;100.00;95789.03;5059225;28;20580;-71
2022/12/04 06:01:25;;;;;;;26.23;7.53;;;;;;;2.11;100.00;95790.41;5061002;28;20224;-71
2022/12/04 06:03:51;;;;;;;30.30;8.70;;;;;;;2.22;100.00;95787.69;5059246;28;20206;-71
2022/12/04 06:06:20;;;;;;;26.73;7.57;;;;;;;2.31;100.00;95773.84;5059276;28;20222;-71
2022/12/04 06:08:47;;;;;;;27.30;6.73;;;;;;;2.13;100.00;95770.31;5058554;28;20698;-71
2022/12/04 06:11:16;;;;;;;31.47;8.53;;;;;;;2.26;100.00;95773.44;5059465;28;20207;-71
2022/12/04 06:13:46;;;;;;;27.90;8.80;;;;;;;2.32;100.00;95763.31;5059005;28;20199;-71
2022/12/04 06:16:14;;;;;;;30.90;10.30;;;;;;;2.32;100.00;95762.47;5058441;28;20253;-71
2022/12/04 06:18:41;;;;;;;25.37;9.03;;;;;;;2.37;100.00;95766.31;5058870;28;20200;-71
2022/12/04 06:21:08;;;;;;;28.87;8.17;;;;;;;2.37;100.00;95768.94;5059016;28;20759;-71
2022/12/04 06:23:35;;;;;;;27.23;10.50;;;;;;;2.23;100.00;95784.94;5058627;28;20596;-71
2022/12/04 06:26:04;;;;;;;35.57;9.33;;;;;;;2.16;100.00;95781.25;5058634;28;20223;-71
2022/12/04 06:28:30;;;;;;;30.33;8.87;;;;;;;2.24;100.00;95785.75;5059125;28;20200;-71
2022/12/04 06:31:02;;;;;;;34.47;8.73;;;;;;;2.34;100.00;95789.16;5058403;28;20710;-71
2022/12/04 06:33:29;;;;;;;30.67;9.40;;;;;;;2.34;100.00;95796.97;5058425;28;20206;-71
2022/12/04 06:36:00;;;;;;;27.23;7.40;;;;;;;2.41;100.00;95793.69;5058021;28;20291;-71
2022/12/04 06:38:27;;;;;;;30.17;9.80;;;;;;;2.20;100.00;95798.22;5059118;28;20640;-71
2022/12/04 06:40:53;;;;;;;27.83;9.17;;;;;;;2.20;100.00;95797.38;5058069;28;20199;-71
2022/12/04 06:43:20;;;;;;;33.73;9.63;;;;;;;2.17;100.00;95811.47;5058217;28;20228;-71
2022/12/04 06:45:47;;;;;;;32.63;8.53;;;;;;;2.26;100.00;95821.03;5057596;28;20753;-71
2022/12/04 06:48:15;;;;;;;34.40;9.77;;;;;;;2.35;100.00;95824.59;5058627;28;20684;-71
2022/12/04 06:50:41;;;;;;;25.80;7.90;;;;;;;2.10;100.00;95809.56;5058462;28;20313;-71
2022/12/04 06:53:08;;;;;;;33.20;10.10;;;;;;;2.16;100.00;95798.63;5058138;28;20244;-71
2022/12/04 06:55:34;;;;;;;23.93;9.07;;;;;;;2.20;100.00;95805.19;5057881;28;20229;-72
2022/12/04 06:58:01;;;;;;;34.80;10.07;;;;;;;2.05;100.00;95788.34;5058997;28;20661;-72
2022/12/04 07:00:28;;;;;;;31.57;9.13;;;;;;;2.28;100.00;95792.31;5058307;28;20644;-72
2022/12/04 07:02:54;;;;;;;35.70;9.83;;;;;;;2.35;100.00;95785.63;5057758;28;20226;-72
2022/12/04 07:05:22;;;;;;;27.43;8.63;;;;;;;2.35;100.00;95798.63;5057604;28;20242;-72
2022/12/04 07:07:49;;;;;;;29.10;8.83;;;;;;;2.29;100.00;95820.78;5057847;28;20332;-72
2022/12/04 07:10:15;;;;;;;33.57;9.73;;;;;;;2.30;100.00;95832.81;5058002;28;20629;-71
2022/12/04 07:12:42;;;;;;;34.07;9.37;;;;;;;2.28;100.00;95833.91;5058064;28;20193;-72
2022/12/04 07:15:10;;;;;;;31.87;8.90;;;;;;;2.34;100.00;95835.97;5057103;28;20226;-71
2022/12/04 07:17:36;;;;;;;30.40;8.77;;;;;;;2.34;100.00;95828.16;5057668;28;20215;-72
2022/12/04 07:20:03;;;;;;;29.80;9.23;;;;;;;2.25;100.00;95816.00;5058043;28;20204;-72
2022/12/04 07:22:31;;;;;;;29.23;8.33;;;;;;;2.40;100.00;95821.44;5056460;28;20231;-71
2022/12/04 07:24:58;;;;;;;32.90;9.50;;;;;;;2.27;100.00;95819.28;5056102;28;20606;-71
2022/12/04 07:27:25;;;;;;;32.60;9.83;;;;;;;2.22;100.00;95824.06;5059014;28;20207;-72
2022/12/04 07:29:52;;;;;;;31.37;10.00;;;;;;;2.18;100.00;95817.50;5056827;28;20200;-72
2022/12/04 07:32:19;;;;;;;33.30;8.83;;;;;;;2.33;100.00;95822.16;5057411;28;20570;-72
2022/12/04 07:34:45;;;;;;;35.37;9.87;;;;;;;2.23;100.00;95823.09;5057331;28;21009;-73
2022/12/04 07:37:12;;;;;;;30.27;9.37;;;;;;;2.34;100.00;95815.16;5056558;28;20207;-73
2022/12/04 07:39:40;;;;;;;34.77;10.10;;;;;;;2.36;100.00;95810.66;5056842;28;20202;-73
2022/12/04 07:42:06;;;;;;;33.53;9.13;;;;;;;2.32;100.00;95820.50;5056984;28;20234;-73
2022/12/04 07:44:33;;;;;;;28.00;8.83;;;;;;;2.44;100.00;95819.41;5056197;28;20208;-73
2022/12/04 07:46:59;;;;;;;25.27;8.70;;;;;;;2.51;100.00;95821.31;5056758;28;20249;-72
2022/12/04 07:49:26;;;;;;;23.90;7.50;;;;;;;2.43;100.00;95828.97;5056546;28;20588;-73
2022/12/04 07:51:52;;;;;;;31.53;9.37;;;;;;;2.59;100.00;95829.22;5056992;28;20204;-74
2022/12/04 07:54:19;;;;;;;31.93;8.37;;;;;;;2.41;100.00;95835.28;5056044;28;20210;-72
2022/12/04 07:56:47;;;;;;;34.20;8.80;;;;;;;2.43;100.00;95831.59;5055825;28;20229;-72
2022/12/04 07:59:13;;;;;;;29.37;9.03;;;;;;;2.35;100.00;95830.63;5056959;28;21164;-72
2022/12/04 08:01:40;;;;;;;28.50;7.97;;;;;;;2.38;100.00;95821.72;5056396;28;20214;-72
2022/12/04 08:04:06;;;;;;;27.67;8.77;;;;;;;2.24;100.00;95811.75;5055544;28;20211;-71
2022/12/04 08:06:34;;;;;;;21.43;7.90;;;;;;;2.40;100.00;95812.03;5056631;28;20224;-71
2022/12/04 08:09:01;;;;;;;32.03;8.30;;;;;;;2.28;100.00;95824.34;5058136;28;20214;-72
2022/12/04 08:11:28;;;;;;;31.23;9.47;;;;;;;2.32;100.00;95823.09;5056802;28;20850;-71
2022/12/04 08:13:57;;;;;;;28.30;9.23;;;;;;;2.47;100.00;95824.34;5055960;28;20214;-71
2022/12/04 08:16:24;;;;;;;24.13;7.23;;;;;;;2.40;100.00;95816.25;5056827;28;20223;-71
2022/12/04 08:18:52;;;;;;;30.30;8.27;;;;;;;2.53;100.00;95819.41;5056794;28;20207;-71
2022/12/04 08:21:21;;;;;;;23.97;8.20;;;;;;;2.47;100.00;95826.94;5056930;28;20579;-71
2022/12/04 08:23:49;;;;;;;25.40;7.20;;;;;;;2.44;100.00;95824.59;5056458;28;20230;-71
2022/12/04 08:26:16;;;;;;;29.07;8.57;;;;;;;2.52;100.00;95838.56;5054923;28;20726;-71
2022/12/04 08:28:43;;;;;;;31.13;8.83;;;;;;;2.50;100.00;95837.06;5056671;28;20218;-71
2022/12/04 08:31:13;;;;;;;27.27;8.63;;;;;;;2.66;100.00;95835.53;5054607;28;20699;-72
2022/12/04 08:33:40;;;;;;;25.37;8.90;;;;;;;2.43;100.00;95834.19;5055661;28;20734;-72
2022/12/04 08:36:08;;;;;;;28.50;8.47;;;;;;;2.51;100.00;95830.91;5055543;28;20591;-71
2022/12/04 08:38:34;;;;;;;22.27;8.03;;;;;;;2.40;100.00;95823.22;5056608;28;20199;-72
2022/12/04 08:41:01;;;;;;;23.57;7.67;;;;;;;2.53;100.00;95815.97;5056888;28;20206;-72
2022/12/04 08:43:28;;;;;;;25.67;8.13;;;;;;;2.35;100.00;95814.22;5053464;28;20700;-71
2022/12/04 08:45:56;;;;;;;28.70;7.83;;;;;;;2.36;100.00;95811.47;5055767;28;20307;-73
2022/12/04 08:48:24;;;;;;;33.57;9.13;;;;;;;2.49;100.00;95812.00;5056995;28;20261;-72
2022/12/04 08:50:51;;;;;;;25.90;7.83;;;;;;;2.33;100.00;95808.31;5056202;28;20209;-72
2022/12/04 08:53:18;;;;;;;28.33;8.83;;;;;;;2.37;100.00;95792.31;5055450;28;20209;-72
2022/12/04 08:55:44;;;;;;;28.93;8.37;;;;;;;2.14;100.00;95795.31;5056085;28;20598;-72
2022/12/04 08:58:11;;;;;;;27.57;8.20;;;;;;;2.39;100.00;95786.97;5056162;28;20213;-72
2022/12/04 09:00:38;;;;;;;35.03;7.73;;;;;;;2.47;100.00;95788.75;5055748;28;20207;-72
2022/12/04 09:03:04;;;;;;;27.73;8.37;;;;;;;2.53;100.00;95776.97;5056340;28;20234;-71
2022/12/04 09:05:32;;;;;;;30.77;8.93;;;;;;;2.56;100.00;95785.31;5055351;28;20222;-72
2022/12/04 09:07:59;;;;;;;30.17;9.30;;;;;;;2.55;100.00;95795.84;5055856;28;20217;-72
2022/12/04 09:10:26;;;;;;;36.30;9.70;;;;;;;2.58;100.00;95795.56;5056376;28;20214;-71
2022/12/04 09:12:52;;;;;;;35.80;10.43;;;;;;;2.66;100.00;95803.47;5056259;28;20205;-71
2022/12/04 09:15:19;;;;;;;24.63;8.23;;;;;;;2.64;100.00;95824.44;5054724;28;20234;-71
2022/12/04 09:17:45;;;;;;;35.83;11.63;;;;;;;2.61;100.00;95826.47;5056082;28;20212;-72
2022/12/04 09:20:13;;;;;;;39.33;9.43;;;;;;;2.64;100.00;95827.03;5055806;28;20226;-71
2022/12/04 09:22:41;;;;;;;25.30;8.87;;;;;;;2.72;100.00;95832.34;5055844;28;20312;-72
2022/12/04 09:25:08;;;;;;;26.33;8.87;;;;;;;4.60;100.00;95811.47;5054552;28;20232;-72
2022/12/04 09:27:37;;;;;;;37.30;9.93;;;;;;;3.71;100.00;95806.34;5056443;28;20202;-72
2022/12/04 09:30:04;;;;;;;33.47;10.57;;;;;;;3.58;100.00;95799.84;5055891;28;20256;-73
2022/12/04 09:32:30;;;;;;;29.37;8.77;;;;;;;3.06;100.00;95803.09;5055654;28;20673;-72
2022/12/04 09:34:57;;;;;;;33.13;9.07;;;;;;;3.11;100.00;95807.88;5054184;28;20598;-72
2022/12/04 09:37:23;;;;;;;27.80;9.03;;;;;;;2.90;100.00;95807.25;5055694;28;20212;-72
2022/12/04 09:39:51;;;;;;;31.53;9.33;;;;;;;2.71;100.00;95802.13;5055275;28;20207;-72
2022/12/04 09:42:29;;;;;;;32.53;8.30;;;;;;;2.86;100.00;95805.09;5055433;28;20231;-72
2022/12/04 09:45:01;;;;;;;28.67;8.03;;;;;;;2.88;100.00;95788.38;5053578;28;20667;-72
2022/12/04 09:47:33;;;;;;;31.30;7.63;;;;;;;2.80;100.00;95790.88;5054958;28;20207;-72
2022/12/04 09:50:04;;;;;;;27.13;8.83;;;;;;;2.85;100.00;95793.88;5055389;28;20245;-72
2022/12/04 09:52:43;;;;;;;22.50;7.53;;;;;;;2.79;100.00;95801.41;5057283;28;20536;-73
2022/12/04 09:55:18;;;;;;;21.07;6.73;;;;;;;2.82;100.00;95783.72;5057831;28;20228;-72
2022/12/04 09:57:48;;;;;;;27.60;7.97;;;;;;;2.73;100.00;95768.16;5059883;28;20203;-73
2022/12/04 10:00:17;;;;;;;25.50;7.87;;;;;;;2.78;100.00;95764.16;5059040;28;20208;-73
2022/12/04 10:02:48;;;;;;;23.10;7.87;;;;;;;2.73;100.00;95763.75;5059017;28;20564;-73
2022/12/04 10:05:20;;;;;;;28.43;7.53;;;;;;;2.89;100.00;95774.41;5058217;28;20227;-73
2022/12/04 10:07:59;;;;;;;29.57;8.60;;;;;;;2.97;100.00;95795.34;5058196;28;20212;-73
2022/12/04 10:10:37;;;;;;;26.43;8.53;;;;;;;2.95;100.00;95786.03;5058247;28;20207;-73
2022/12/04 10:13:16;;;;;;;26.93;8.53;;;;;;;2.97;100.00;95782.31;5058960;28;20211;-71
2022/12/04 10:15:49;;;;;;;20.70;6.97;;;;;;;2.92;100.00;95768.09;5057853;28;20727;-71
2022/12/04 10:18:28;;;;;;;26.67;7.83;;;;;;;2.99;100.00;95759.56;5058322;28;20214;-71
2022/12/04 10:21:13;;;;;;;25.80;8.37;;;;;;;2.93;100.00;95752.34;5058271;28;20211;-71
2022/12/04 10:23:52;;;;;;;27.57;8.50;;;;;;;2.94;100.00;95746.19;5058299;28;20223;-71
2022/12/04 10:26:24;;;;;;;24.40;7.63;;;;;;;2.85;100.00;95746.22;5059812;28;20274;-71
2022/12/04 10:28:55;;;;;;;29.80;8.47;;;;;;;2.92;100.00;95757.69;5058428;28;20219;-71
2022/12/04 10:31:21;;;;;;;32.30;8.77;;;;;;;2.80;100.00;95770.06;5057658;28;20230;-71
2022/12/04 10:33:52;;;;;;;42.27;11.83;;;;;;;2.94;100.00;95761.81;5058965;28;20214;-71
2022/12/04 10:36:21;;;;;;;73.17;17.10;;;;;;;2.85;100.00;95751.41;5061342;28;20893;-71
2022/12/04 10:38:53;;;;;;;37.63;10.83;;;;;;;2.96;100.00;95752.06;5058763;28;20591;-72
2022/12/04 10:41:27;;;;;;;31.03;8.97;;;;;;;2.86;100.00;95759.06;5058171;28;20288;-71
2022/12/04 10:43:53;;;;;;;34.97;10.60;;;;;;;2.95;100.00;95763.41;5057732;28;20231;-72
2022/12/04 10:46:23;;;;;;;45.90;12.97;;;;;;;3.06;100.00;95761.44;5057651;28;20227;-72
2022/12/04 10:48:52;;;;;;;33.23;9.37;;;;;;;3.07;100.00;95757.09;5057821;28;20664;-71
2022/12/04 10:51:21;;;;;;;33.77;9.83;;;;;;;3.07;100.00;95754.47;5057018;28;20553;-71
2022/12/04 10:53:49;;;;;;;41.27;10.83;;;;;;;3.03;100.00;95759.16;5056885;28;20720;-71
2022/12/04 10:56:17;;;;;;;34.27;10.23;;;;;;;2.96;100.00;95738.22;5057756;28;20227;-73
2022/12/04 10:58:55;;;;;;;31.17;7.73;;;;;;;3.15;100.00;95742.38;5057377;28;20207;-73
2022/12/04 11:01:23;;;;;;;32.60;9.10;;;;;;;3.00;100.00;95742.19;5056557;28;20204;-71
2022/12/04 11:03:57;;;;;;;27.17;8.80;;;;;;;3.08;100.00;95748.28;5055943;28;20235;-71
2022/12/04 11:06:25;;;;;;;18.57;7.00;;;;;;;4.50;100.00;95745.50;5057401;28;20233;-72
2022/12/04 11:08:54;;;;;;;30.43;8.27;;;;;;;5.75;100.00;95737.63;5054160;28;20669;-72
2022/12/04 11:11:25;;;;;;;43.43;10.83;;;;;;;5.21;100.00;95738.09;5057015;28;20219;-72
2022/12/04 11:14:02;;;;;;;35.97;11.20;;;;;;;4.55;100.00;95735.44;5055776;28;20208;-72
2022/12/04 11:16:36;;;;;;;28.70;9.30;;;;;;;3.90;100.00;95746.28;5056775;28;20228;-72
2022/12/04 11:19:03;;;;;;;32.13;9.23;;;;;;;3.78;100.00;95737.06;5057978;28;20305;-72
2022/12/04 11:21:31;;;;;;;26.43;9.23;;;;;;;3.49;100.00;95732.19;5057725;28;20200;-72
2022/12/04 11:23:58;;;;;;;25.10;9.13;;;;;;;3.28;100.00;95739.44;5057153;28;20229;-72
2022/12/04 11:26:34;;;;;;;30.93;8.37;;;;;;;3.38;100.00;95753.22;5058113;28;20228;-72
2022/12/04 11:29:04;;;;;;;30.00;9.53;;;;;;;3.37;100.00;95741.16;5056546;28;20209;-72
2022/12/04 11:31:32;;;;;;;26.50;9.40;;;;;;;3.35;100.00;95753.53;5056972;28;20202;-71
2022/12/04 11:34:01;;;;;;;25.77;9.20;;;;;;;3.45;100.00;95739.50;5056814;28;21135;-72
2022/12/04 11:36:31;;;;;;;25.53;8.53;;;;;;;3.21;100.00;95717.56;5058006;28;20230;-72
2022/12/04 11:39:06;;;;;;;23.07;7.37;;;;;;;3.20;100.00;95700.31;5056765;28;20214;-72
2022/12/04 11:41:33;;;;;;;28.60;8.10;;;;;;;3.02;100.00;95692.44;5056867;28;20208;-72
2022/12/04 11:44:00;;;;;;;27.43;7.83;;;;;;;2.95;100.00;95676.75;5056551;28;20228;-72
2022/12/04 11:46:30;;;;;;;26.97;8.57;;;;;;;3.20;100.00;95676.88;5056789;28;20255;-72